Time;durP1;ratioP1;P1;durP2;ratioP2;P2;SDS_P1;SDS_P2;PMS_P1;PMS_P2;Temp;Humidity;BMP_temperature;BMP_pressure;BME280_temperature;BME280_humidity;BME280_pressure;Samples;Min_cycle;Max_cycle;Signal;HPM_P1;HPM_P2
2021/06/09 00:01:46;;;;;;;3.08;2.97;;;;;;;12.61;70.14;101056.03;6318292;22;20007;-73
2021/06/09 00:04:12;;;;;;;3.50;3.20;;;;;;;12.57;71.08;101047.47;6314937;22;20075;-74
2021/06/09 00:06:38;;;;;;;4.50;4.13;;;;;;;12.54;71.27;101048.00;6281903;22;19999;-75
2021/06/09 00:09:05;;;;;;;4.78;4.38;;;;;;;12.53;71.20;101043.63;6259415;22;20010;-74
2021/06/09 00:11:31;;;;;;;4.88;4.68;;;;;;;12.50;71.76;101046.88;6282827;22;20003;-75
2021/06/09 00:13:56;;;;;;;4.20;3.95;;;;;;;12.43;71.55;101035.34;6310335;22;19999;-75
2021/06/09 00:16:23;;;;;;;5.13;4.53;;;;;;;12.41;71.37;101041.06;6278755;22;20034;-74
2021/06/09 00:18:49;;;;;;;5.03;4.72;;;;;;;12.34;71.67;101038.56;6311652;22;20361;-76
2021/06/09 00:21:16;;;;;;;4.40;4.10;;;;;;;12.33;72.16;101047.88;6304305;22;20007;-75
2021/06/09 00:23:42;;;;;;;4.95;4.45;;;;;;;12.30;72.08;101047.59;6303857;22;20307;-74
2021/06/09 00:26:08;;;;;;;3.85;3.47;;;;;;;12.28;72.09;101034.13;6311349;22;20011;-75
2021/06/09 00:28:35;;;;;;;2.53;2.42;;;;;;;12.21;72.21;101033.53;6281375;22;20037;-75
2021/06/09 00:31:05;;;;;;;2.50;2.40;;;;;;;12.23;72.19;101039.56;6305038;22;20059;-74
2021/06/09 00:33:31;;;;;;;3.88;2.78;;;;;;;12.19;72.06;101046.66;6307827;22;20006;-74
2021/06/09 00:35:58;;;;;;;2.92;2.72;;;;;;;12.15;72.03;101045.53;6310728;22;20414;-73
2021/06/09 00:38:28;;;;;;;2.70;2.60;;;;;;;12.15;72.29;101049.09;6281136;22;20011;-74
2021/06/09 00:40:54;;;;;;;4.35;4.05;;;;;;;12.10;71.98;101042.75;6310589;22;20011;-76
2021/06/09 00:43:22;;;;;;;3.45;3.25;;;;;;;12.07;72.03;101037.78;6257982;22;20045;-76
2021/06/09 00:45:54;;;;;;;3.03;2.78;;;;;;;12.04;71.83;101039.13;6308301;22;20004;-76
2021/06/09 00:48:24;;;;;;;2.40;2.30;;;;;;;12.02;72.12;101039.41;6310736;22;20007;-75
2021/06/09 00:50:50;;;;;;;3.65;3.42;;;;;;;11.95;72.01;101036.03;6311829;22;20073;-76
2021/06/09 00:53:35;;;;;;;4.00;3.80;;;;;;;11.94;71.93;101034.38;6283920;22;20010;-75
2021/06/09 00:56:08;;;;;;;8.63;3.35;;;;;;;11.90;72.13;101035.13;6285470;22;20003;-75
2021/06/09 00:58:35;;;;;;;3.45;3.15;;;;;;;11.84;72.12;101034.25;6309579;22;20010;-76
2021/06/09 01:01:01;;;;;;;2.70;2.60;;;;;;;11.78;72.21;101035.31;6310376;22;20007;-76
2021/06/09 01:03:27;;;;;;;3.08;2.83;;;;;;;11.73;72.51;101027.03;6283839;22;20019;-75
2021/06/09 01:05:53;;;;;;;4.35;3.35;;;;;;;11.64;72.40;101030.25;6282943;22;20082;-76
2021/06/09 01:08:20;;;;;;;6.85;3.22;;;;;;;11.63;72.50;101028.56;6284247;22;20422;-75
2021/06/09 01:10:50;;;;;;;2.92;2.75;;;;;;;11.62;72.67;101039.78;6308055;22;20011;-76
2021/06/09 01:13:24;;;;;;;4.07;3.78;;;;;;;11.57;72.73;101037.03;6312957;22;20002;-75
2021/06/09 01:15:50;;;;;;;4.07;3.88;;;;;;;11.55;72.76;101037.28;6285988;22;20031;-75
2021/06/09 01:18:16;;;;;;;3.63;3.35;;;;;;;11.51;72.73;101038.88;6306661;22;20007;-75
2021/06/09 01:20:42;;;;;;;3.58;3.38;;;;;;;11.45;72.59;101031.69;6288796;22;20007;-75
2021/06/09 01:23:08;;;;;;;4.40;4.20;;;;;;;11.37;72.88;101027.47;6320316;22;20015;-72
2021/06/09 01:25:34;;;;;;;3.72;3.53;;;;;;;11.37;73.47;101029.41;6319764;22;20003;-75
2021/06/09 01:28:00;;;;;;;5.55;5.03;;;;;;;11.29;73.35;101023.28;6318678;22;20263;-75
2021/06/09 01:30:26;;;;;;;5.57;5.28;;;;;;;11.30;73.32;101015.91;6258412;22;20014;-75
2021/06/09 01:32:53;;;;;;;5.15;4.80;;;;;;;11.29;73.45;101023.28;6311584;22;19999;-74
2021/06/09 01:35:20;;;;;;;6.13;5.82;;;;;;;11.28;74.54;101024.38;6308867;22;20025;-74
2021/06/09 01:37:45;;;;;;;5.55;5.25;;;;;;;11.24;74.40;101025.94;6282960;22;20019;-73
2021/06/09 01:40:14;;;;;;;5.25;3.92;;;;;;;11.20;73.96;101030.31;6258054;22;20023;-74
2021/06/09 01:42:41;;;;;;;3.97;3.67;;;;;;;11.15;73.87;101030.22;6310321;22;20003;-75
2021/06/09 01:45:10;;;;;;;4.82;4.63;;;;;;;11.10;74.66;101028.25;6283966;22;20011;-74
2021/06/09 01:47:36;;;;;;;6.18;5.30;;;;;;;11.06;74.02;101023.56;6283819;22;20003;-74
2021/06/09 01:50:07;;;;;;;6.38;5.85;;;;;;;11.05;73.95;101032.84;6284432;22;20007;-74
2021/06/09 01:52:33;;;;;;;5.78;4.40;;;;;;;11.04;74.36;101031.19;6311003;22;20045;-74
2021/06/09 01:55:00;;;;;;;4.82;4.53;;;;;;;11.03;74.75;101029.56;6284802;22;20003;-75
2021/06/09 01:57:25;;;;;;;4.93;4.55;;;;;;;11.02;74.89;101027.88;6284664;22;20003;-75
2021/06/09 01:59:51;;;;;;;4.60;4.40;;;;;;;11.00;74.38;101031.69;6306546;22;20007;-75
2021/06/09 02:02:16;;;;;;;4.75;4.35;;;;;;;11.01;74.27;101029.81;6284375;22;20091;-74
2021/06/09 02:04:42;;;;;;;4.25;3.95;;;;;;;10.96;74.98;101025.06;6313635;22;20028;-75
2021/06/09 02:07:08;;;;;;;3.40;3.30;;;;;;;10.92;74.66;101028.56;6282880;22;20008;-76
2021/06/09 02:09:38;;;;;;;4.65;4.43;;;;;;;10.92;74.42;101023.94;6311310;22;20325;-75
2021/06/09 02:12:06;;;;;;;4.85;4.43;;;;;;;10.89;74.23;101023.59;6280761;22;20007;-75
2021/06/09 02:14:32;;;;;;;5.50;5.13;;;;;;;10.88;74.95;101036.47;6309922;22;20023;-75
2021/06/09 02:16:57;;;;;;;8.18;5.05;;;;;;;10.85;75.07;101034.25;6284999;22;20433;-77
2021/06/09 02:19:23;;;;;;;5.00;4.65;;;;;;;10.85;75.28;101028.78;6283094;22;20093;-76
2021/06/09 02:21:50;;;;;;;7.93;4.53;;;;;;;10.84;75.55;101032.59;6313093;22;20332;-73
2021/06/09 02:24:16;;;;;;;5.80;5.50;;;;;;;10.80;75.64;101032.25;6305527;22;19999;-74
2021/06/09 02:26:42;;;;;;;4.10;3.78;;;;;;;10.78;75.71;101033.59;6308434;22;20003;-74
2021/06/09 02:29:09;;;;;;;4.15;3.63;;;;;;;10.71;75.59;101027.47;6308914;22;20014;-74
2021/06/09 02:31:43;;;;;;;4.88;4.68;;;;;;;10.71;76.01;101031.03;6257824;22;20007;-74
2021/06/09 02:34:15;;;;;;;7.00;4.68;;;;;;;10.71;75.79;101027.47;6284282;22;19991;-73
2021/06/09 02:36:41;;;;;;;5.40;3.97;;;;;;;10.63;76.31;101021.34;6313231;22;20011;-73
2021/06/09 02:39:07;;;;;;;3.95;3.47;;;;;;;10.64;75.75;101033.97;6260353;22;20015;-72
2021/06/09 02:41:32;;;;;;;2.90;2.63;;;;;;;10.56;75.90;101026.19;6315541;22;20035;-72
2021/06/09 02:44:00;;;;;;;3.40;3.20;;;;;;;10.59;76.60;101038.53;6286595;22;20007;-74
2021/06/09 02:46:35;;;;;;;3.97;3.58;;;;;;;10.54;75.81;101033.81;6260940;22;20402;-73
2021/06/09 02:49:04;;;;;;;3.47;3.28;;;;;;;10.46;76.09;101026.84;6315443;22;20027;-74
2021/06/09 02:51:41;;;;;;;3.75;3.53;;;;;;;10.47;75.84;101033.16;6287803;22;20038;-73
2021/06/09 02:54:42;;;;;;;2.90;2.70;;;;;;;10.45;76.83;101040.78;6281826;22;19999;-72
2021/06/09 02:57:10;;;;;;;2.42;2.33;;;;;;;10.44;75.76;101039.09;6235492;22;20015;-75
2021/06/09 03:00:05;;;;;;;2.72;2.63;;;;;;;10.42;76.59;101033.06;6285145;22;20003;-73
2021/06/09 03:02:40;;;;;;;2.65;2.55;;;;;;;10.40;76.71;101038.78;6275106;22;19999;-72
2021/06/09 03:05:25;;;;;;;2.45;2.25;;;;;;;10.36;76.03;101028.59;6285883;22;20092;-72
2021/06/09 03:08:26;;;;;;;2.50;2.40;;;;;;;10.29;76.01;101021.38;6286492;22;20003;-73
2021/06/09 03:11:02;;;;;;;2.25;2.15;;;;;;;10.23;75.96;101016.88;6267709;22;20007;-74
2021/06/09 03:14:00;;;;;;;2.17;2.05;;;;;;;10.19;75.60;101020.38;6285259;22;20409;-73
2021/06/09 03:16:41;;;;;;;2.83;2.72;;;;;;;10.15;76.22;101020.06;6318363;22;20022;-75
2021/06/09 03:19:12;;;;;;;1.50;1.50;;;;;;;10.10;75.51;101006.28;6316029;22;20003;-75
2021/06/09 03:21:45;;;;;;;2.08;1.98;;;;;;;10.12;75.74;101015.09;6288082;22;20039;-73
2021/06/09 03:24:33;;;;;;;1.35;1.35;;;;;;;10.11;75.94;101013.44;6286433;22;20003;-73
2021/06/09 03:27:15;;;;;;;1.40;1.40;;;;;;;10.11;75.93;101013.44;6316971;22;20035;-73
2021/06/09 03:29:49;;;;;;;2.42;2.33;;;;;;;10.08;75.82;101003.81;6312258;22;20003;-72
2021/06/09 03:32:29;;;;;;;2.08;1.98;;;;;;;10.15;76.13;101003.66;6287734;22;20003;-74
2021/06/09 03:35:02;;;;;;;0.98;0.98;;;;;;;10.18;76.27;101002.31;6283361;22;20372;-73
2021/06/09 03:37:32;;;;;;;0.70;0.70;;;;;;;10.20;75.31;101002.91;6317166;22;20026;-73
2021/06/09 03:40:01;;;;;;;0.40;0.40;;;;;;;10.22;75.49;101000.75;6309943;22;20003;-73
2021/06/09 03:42:30;;;;;;;0.40;0.40;;;;;;;10.28;75.09;101003.31;6287142;22;19999;-74
2021/06/09 03:44:58;;;;;;;0.60;0.60;;;;;;;10.33;75.62;100999.00;6315674;22;20003;-72
2021/06/09 03:47:25;;;;;;;1.17;1.17;;;;;;;10.37;74.96;101005.66;6285659;22;20098;-72
2021/06/09 03:49:52;;;;;;;1.58;1.50;;;;;;;10.23;75.35;100989.56;6288253;22;20007;-73
2021/06/09 03:52:18;;;;;;;1.50;1.50;;;;;;;10.36;75.06;101004.00;6285257;22;20014;-71
2021/06/09 03:54:48;;;;;;;1.48;1.42;;;;;;;10.35;75.08;101002.34;6313694;22;20030;-73
2021/06/09 03:57:15;;;;;;;1.10;1.10;;;;;;;10.31;74.48;101002.81;6315124;22;20082;-73
2021/06/09 03:59:45;;;;;;;1.67;1.67;;;;;;;10.28;74.54;101003.31;6285873;22;20007;-73
2021/06/09 04:02:11;;;;;;;1.48;1.38;;;;;;;10.27;74.93;101007.13;6312727;22;20004;-74
2021/06/09 04:04:37;;;;;;;0.95;0.95;;;;;;;10.27;74.37;101001.66;6288752;22;20007;-74
2021/06/09 04:07:06;;;;;;;0.30;0.30;;;;;;;10.30;74.58;101012.09;6284630;22;20102;-73
2021/06/09 04:09:33;;;;;;;1.38;1.38;;;;;;;10.33;74.70;100999.81;6288150;22;20035;-73
2021/06/09 04:12:01;;;;;;;1.00;1.00;;;;;;;10.36;74.56;100998.53;6285165;22;20010;-73
2021/06/09 04:14:46;;;;;;;0.50;0.50;;;;;;;10.31;74.78;100986.41;6308888;22;20010;-73
2021/06/09 04:17:16;;;;;;;0.60;0.60;;;;;;;10.39;74.61;101001.59;6285917;22;20030;-74
2021/06/09 04:19:43;;;;;;;0.22;0.22;;;;;;;10.37;74.20;100989.25;6288233;22;20022;-74
2021/06/09 04:22:11;;;;;;;0.25;0.25;;;;;;;10.43;74.83;100988.25;6285350;22;20063;-75
2021/06/09 04:24:39;;;;;;;0.40;0.40;;;;;;;10.55;75.13;101002.63;6315072;22;20057;-73
2021/06/09 04:27:08;;;;;;;0.40;0.40;;;;;;;10.46;74.59;100974.06;6257509;22;20094;-75
2021/06/09 04:29:34;;;;;;;0.95;0.50;;;;;;;10.58;74.69;100982.97;6289861;22;20086;-75
2021/06/09 04:32:00;;;;;;;1.30;0.35;;;;;;;10.59;74.41;100962.78;6259890;22;20006;-74
2021/06/09 04:34:28;;;;;;;0.50;0.50;;;;;;;10.72;73.92;100979.88;6282995;22;20078;-75
2021/06/09 04:36:54;;;;;;;0.50;0.50;;;;;;;10.76;74.23;100981.88;6303553;22;20039;-74
2021/06/09 04:39:19;;;;;;;0.40;0.40;;;;;;;10.80;73.21;100985.72;6281580;22;20004;-75
2021/06/09 04:41:48;;;;;;;0.50;0.50;;;;;;;10.74;73.05;100972.25;6282704;22;20115;-74
2021/06/09 04:44:16;;;;;;;0.40;0.38;;;;;;;10.67;73.77;100966.97;6281587;22;20010;-74
2021/06/09 04:46:42;;;;;;;0.38;0.38;;;;;;;10.72;73.83;100969.78;6255463;22;20012;-75
2021/06/09 04:49:07;;;;;;;2.15;0.90;;;;;;;10.80;73.57;100976.72;6280838;22;20038;-74
2021/06/09 04:51:35;;;;;;;1.40;1.30;;;;;;;10.82;73.16;100990.97;6257679;22;20006;-75
2021/06/09 04:54:06;;;;;;;1.20;1.20;;;;;;;10.80;73.10;100979.44;6230842;22;20025;-74
2021/06/09 04:56:37;;;;;;;0.95;0.95;;;;;;;10.82;73.79;100980.84;6285128;22;20003;-74
2021/06/09 04:59:06;;;;;;;1.00;1.00;;;;;;;10.88;73.84;100983.63;6254656;22;20004;-73
2021/06/09 05:01:35;;;;;;;1.70;1.60;;;;;;;10.92;73.30;100993.84;6257271;22;20007;-74
2021/06/09 05:04:01;;;;;;;1.92;1.83;;;;;;;10.91;72.73;100986.72;6256358;22;20007;-74
2021/06/09 05:06:26;;;;;;;1.70;1.70;;;;;;;10.92;72.81;100991.09;6283469;22;20154;-74
2021/06/09 05:08:52;;;;;;;1.80;1.73;;;;;;;10.84;72.83;100980.59;6279445;22;20008;-74
2021/06/09 05:11:33;;;;;;;1.27;1.27;;;;;;;10.92;73.05;100999.31;6284209;22;19999;-76
2021/06/09 05:14:01;;;;;;;1.20;1.20;;;;;;;10.97;73.29;101007.56;6278385;22;20079;-76
2021/06/09 05:16:28;;;;;;;1.13;1.13;;;;;;;11.03;72.76;101002.19;6282319;22;19999;-76
2021/06/09 05:18:55;;;;;;;2.80;2.70;;;;;;;11.01;72.78;100999.69;6282278;22;20007;-76
2021/06/09 05:21:27;;;;;;;4.15;3.10;;;;;;;11.10;72.12;101013.75;6258147;22;20000;-76
2021/06/09 05:23:54;;;;;;;2.97;2.88;;;;;;;11.14;72.05;101007.53;6282354;22;20010;-77
2021/06/09 05:26:20;;;;;;;2.40;2.30;;;;;;;11.16;72.81;101005.34;6258713;22;20008;-78
2021/06/09 05:28:50;;;;;;;1.65;1.60;;;;;;;11.24;72.51;100998.56;6279768;22;20433;-77
2021/06/09 05:31:25;;;;;;;0.80;0.80;;;;;;;11.30;72.23;100989.38;6272402;22;20004;-77
2021/06/09 05:33:55;;;;;;;0.85;0.85;;;;;;;11.45;72.23;100999.66;6281777;22;20002;-76
2021/06/09 05:36:24;;;;;;;1.10;1.10;;;;;;;11.57;72.01;101007.72;6287985;22;20042;-77
2021/06/09 05:38:50;;;;;;;0.60;0.60;;;;;;;11.64;71.83;101008.31;6315728;22;20055;-76
2021/06/09 05:41:17;;;;;;;0.60;0.60;;;;;;;11.76;71.97;101010.09;6312474;22;20029;-75
2021/06/09 05:43:43;;;;;;;0.50;0.50;;;;;;;11.88;71.60;101013.47;6238055;22;20004;-75
2021/06/09 05:46:09;;;;;;;0.57;0.57;;;;;;;12.00;71.55;101022.41;6255186;22;20064;-74
2021/06/09 05:48:43;;;;;;;0.15;0.15;;;;;;;12.12;71.20;101019.47;6310612;22;20073;-74
2021/06/09 05:51:11;;;;;;;0.20;0.20;;;;;;;12.25;71.28;101029.19;6313986;22;20003;-74
2021/06/09 05:53:36;;;;;;;0.52;0.52;;;;;;;12.43;71.03;101013.41;6309465;22;19999;-73
2021/06/09 05:56:02;;;;;;;0.40;0.40;;;;;;;12.47;70.46;101006.28;6284700;22;20014;-75
2021/06/09 05:58:28;;;;;;;0.40;0.40;;;;;;;12.48;70.38;101010.66;6315001;22;20441;-76
2021/06/09 06:00:56;;;;;;;0.20;0.20;;;;;;;12.48;70.18;101011.50;6314606;22;20018;-74
2021/06/09 06:03:24;;;;;;;0.30;0.30;;;;;;;12.52;70.13;101007.13;6310562;22;20075;-74
2021/06/09 06:05:55;;;;;;;0.30;0.30;;;;;;;12.61;69.86;101015.69;6286412;22;20481;-74
2021/06/09 06:08:20;;;;;;;0.68;0.68;;;;;;;12.63;69.54;101013.53;6315107;22;20046;-74
2021/06/09 06:10:45;;;;;;;1.95;1.85;;;;;;;12.67;69.27;101020.09;6286037;22;20011;-74
2021/06/09 06:13:13;;;;;;;0.60;0.60;;;;;;;12.71;69.47;101015.75;6287083;22;20007;-75
2021/06/09 06:15:39;;;;;;;0.57;0.57;;;;;;;12.83;69.44;101018.28;6312021;22;20014;-75
2021/06/09 06:18:05;;;;;;;0.85;0.60;;;;;;;12.85;69.39;101024.34;6314350;22;20011;-74
2021/06/09 06:20:30;;;;;;;0.30;0.30;;;;;;;12.83;69.18;101022.94;6312977;22;20082;-75
2021/06/09 06:22:55;;;;;;;1.30;0.43;;;;;;;12.89;69.75;101017.22;6286273;22;20015;-75
2021/06/09 06:25:25;;;;;;;0.30;0.30;;;;;;;13.01;69.50;101027.13;6286128;22;20011;-73
2021/06/09 06:27:52;;;;;;;0.50;0.40;;;;;;;13.10;69.51;101026.38;6285955;22;20011;-74
2021/06/09 06:30:21;;;;;;;0.20;0.20;;;;;;;13.28;68.85;101026.97;6262754;22;20008;-75
2021/06/09 06:32:52;;;;;;;0.20;0.20;;;;;;;13.39;68.39;101023.22;6309711;22;20007;-74
2021/06/09 06:35:20;;;;;;;0.43;0.43;;;;;;;13.49;67.85;101033.41;6313492;22;20364;-75
2021/06/09 06:37:48;;;;;;;0.50;0.50;;;;;;;13.59;67.89;101046.34;6284706;22;20023;-74
2021/06/09 06:40:17;;;;;;;1.38;1.38;;;;;;;13.59;67.51;101029.84;6288749;22;20027;-74
2021/06/09 06:42:45;;;;;;;0.60;0.60;;;;;;;13.78;68.03;101033.75;6314083;22;19999;-74
2021/06/09 06:45:11;;;;;;;0.30;0.30;;;;;;;14.01;67.67;101042.56;6260534;22;20014;-74
2021/06/09 06:47:36;;;;;;;0.28;0.28;;;;;;;14.20;67.68;101039.25;6313740;22;20051;-73
2021/06/09 06:50:03;;;;;;;0.40;0.40;;;;;;;14.39;67.45;101045.03;6286667;22;20011;-74
2021/06/09 06:52:30;;;;;;;0.57;0.57;;;;;;;14.53;67.43;101042.53;6311897;22;20007;-73
2021/06/09 06:55:01;;;;;;;3.13;1.02;;;;;;;14.58;66.90;101048.03;6282383;22;20003;-74
2021/06/09 06:57:30;;;;;;;0.93;0.90;;;;;;;14.56;66.73;101047.47;6286148;22;20485;-76
2021/06/09 06:59:57;;;;;;;0.45;0.45;;;;;;;14.68;66.83;101056.31;6281437;22;20007;-74
2021/06/09 07:02:23;;;;;;;0.50;0.50;;;;;;;14.77;66.92;101059.31;6314557;22;20003;-71
2021/06/09 07:04:49;;;;;;;0.70;0.70;;;;;;;14.78;66.66;101061.78;6310176;22;20007;-73
2021/06/09 07:07:17;;;;;;;0.90;0.90;;;;;;;14.71;66.78;101061.25;6313650;22;20027;-75
2021/06/09 07:09:43;;;;;;;1.05;0.70;;;;;;;14.68;67.17;101067.31;6285388;22;20067;-74
2021/06/09 07:12:09;;;;;;;0.73;0.73;;;;;;;14.59;67.17;101069.78;6283588;22;20122;-76
2021/06/09 07:14:36;;;;;;;0.50;0.50;;;;;;;14.63;67.94;101064.56;6313736;22;20000;-75
2021/06/09 07:17:02;;;;;;;0.32;0.30;;;;;;;14.85;68.10;101061.50;6283029;22;20099;-74
2021/06/09 07:19:27;;;;;;;1.58;1.48;;;;;;;15.14;67.63;101069.09;6285128;22;20027;-75
2021/06/09 07:21:54;;;;;;;0.57;0.57;;;;;;;15.23;66.98;101072.09;6260649;22;20010;-74
2021/06/09 07:24:20;;;;;;;0.50;0.50;;;;;;;15.27;66.43;101070.44;6279922;22;20057;-74
2021/06/09 07:26:48;;;;;;;0.80;0.80;;;;;;;15.31;66.43;101066.03;6313816;22;20026;-74
2021/06/09 07:29:20;;;;;;;0.85;0.80;;;;;;;15.45;66.48;101067.06;6311731;22;20082;-74
2021/06/09 07:31:46;;;;;;;0.90;0.90;;;;;;;15.52;66.40;101070.34;6307544;22;20426;-75
2021/06/09 07:34:14;;;;;;;2.28;0.70;;;;;;;15.63;66.00;101065.56;6307599;22;20019;-73
2021/06/09 07:36:50;;;;;;;1.23;1.23;;;;;;;15.78;65.44;101078.47;6313831;22;20015;-75
2021/06/09 07:39:38;;;;;;;1.00;1.00;;;;;;;15.94;65.33;101067.34;6314874;22;20003;-73
2021/06/09 07:42:07;;;;;;;0.80;0.80;;;;;;;16.00;65.28;101066.19;6316587;22;20010;-74
2021/06/09 07:44:38;;;;;;;0.50;0.50;;;;;;;16.17;64.87;101074.91;6307368;22;20232;-73
2021/06/09 07:47:07;;;;;;;1.23;0.65;;;;;;;16.32;64.74;101064.84;6306248;22;20007;-74
2021/06/09 07:49:38;;;;;;;0.50;0.50;;;;;;;16.62;64.48;101065.66;6310486;22;20003;-74
2021/06/09 07:52:05;;;;;;;0.47;0.47;;;;;;;16.88;63.80;101056.06;6305438;22;20061;-74
2021/06/09 07:54:32;;;;;;;1.50;1.10;;;;;;;17.17;63.10;101069.00;6261122;22;20004;-73
2021/06/09 07:57:00;;;;;;;1.50;1.50;;;;;;;17.31;61.32;101068.28;6312436;22;20082;-74
2021/06/09 07:59:27;;;;;;;1.00;1.00;;;;;;;17.38;61.44;101068.72;6311722;22;20492;-73
2021/06/09 08:01:53;;;;;;;0.90;0.90;;;;;;;17.51;60.84;101065.22;6313623;22;19999;-72
2021/06/09 08:04:21;;;;;;;1.20;1.20;;;;;;;17.60;60.22;101065.38;6310818;22;20003;-73
2021/06/09 08:06:46;;;;;;;0.73;0.73;;;;;;;17.69;59.98;101071.06;6313097;22;20310;-73
2021/06/09 08:09:15;;;;;;;0.30;0.30;;;;;;;17.79;59.91;101068.16;6308331;22;20007;-73
2021/06/09 08:11:41;;;;;;;0.95;0.95;;;;;;;17.98;59.49;101070.13;6282770;22;20035;-73
2021/06/09 08:14:07;;;;;;;0.57;0.45;;;;;;;18.28;59.79;101069.63;6287422;22;20058;-73
2021/06/09 08:16:34;;;;;;;1.30;0.95;;;;;;;18.64;59.14;101069.00;6283261;22;20030;-73
2021/06/09 08:19:05;;;;;;;0.77;0.73;;;;;;;18.89;57.88;101060.56;6261570;22;20065;-72
2021/06/09 08:21:31;;;;;;;0.70;0.70;;;;;;;19.25;57.84;101062.63;6309403;22;20456;-73
2021/06/09 08:23:56;;;;;;;0.38;0.38;;;;;;;19.65;57.87;101060.06;6312209;22;20004;-73
2021/06/09 08:26:24;;;;;;;0.90;0.90;;;;;;;19.86;55.98;101071.56;6304907;22;20013;-73
2021/06/09 08:28:52;;;;;;;0.98;0.98;;;;;;;19.87;54.88;101068.47;6313270;22;20011;-72
2021/06/09 08:31:21;;;;;;;0.55;0.55;;;;;;;19.85;54.94;101069.91;6301297;22;20014;-71
2021/06/09 08:33:49;;;;;;;0.93;0.90;;;;;;;19.91;54.29;101063.09;6303847;22;20663;-73
2021/06/09 08:36:14;;;;;;;0.88;0.88;;;;;;;19.74;54.13;101057.38;6283188;22;20007;-73
2021/06/09 08:38:41;;;;;;;0.63;0.63;;;;;;;19.47;54.14;101050.78;6285254;22;20050;-74
2021/06/09 08:41:08;;;;;;;0.50;0.50;;;;;;;19.21;53.92;101056.03;6311036;22;20007;-73
2021/06/09 08:43:35;;;;;;;1.20;1.20;;;;;;;18.88;54.42;101053.34;6280034;22;20053;-73
2021/06/09 08:46:06;;;;;;;2.20;2.10;;;;;;;18.43;54.99;101062.19;6310442;22;20011;-73
2021/06/09 08:48:37;;;;;;;1.25;1.25;;;;;;;18.14;56.14;101063.22;6286856;22;20003;-74
2021/06/09 08:51:05;;;;;;;1.80;1.70;;;;;;;17.96;56.83;101071.25;6286471;22;20025;-75
2021/06/09 08:53:33;;;;;;;1.70;1.60;;;;;;;17.89;57.67;101062.47;6314875;22;19999;-76
2021/06/09 08:55:59;;;;;;;1.80;1.70;;;;;;;17.98;57.58;101059.06;6315878;22;20003;-75
2021/06/09 08:58:25;;;;;;;1.20;1.10;;;;;;;18.01;57.68;101064.00;6260452;22;20007;-71
2021/06/09 09:00:51;;;;;;;1.92;1.83;;;;;;;18.04;57.89;101069.75;6312009;22;20011;-73
2021/06/09 09:03:16;;;;;;;1.80;1.70;;;;;;;18.07;58.19;101071.91;6262132;22;20147;-73
2021/06/09 09:05:42;;;;;;;2.10;2.00;;;;;;;18.07;57.91;101071.91;6253795;22;20030;-72
2021/06/09 09:08:08;;;;;;;2.50;2.30;;;;;;;18.14;58.26;101068.75;6308203;22;19999;-73
2021/06/09 09:10:34;;;;;;;2.75;2.55;;;;;;;18.27;57.95;101068.00;6286169;22;20022;-73
2021/06/09 09:13:00;;;;;;;2.53;2.28;;;;;;;18.37;57.64;101067.00;6286101;22;20067;-74
2021/06/09 09:15:27;;;;;;;3.05;2.63;;;;;;;18.44;57.60;101061.06;6255183;22;20025;-73
2021/06/09 09:17:53;;;;;;;2.10;2.00;;;;;;;18.47;57.04;101066.81;6313743;22;20426;-73
2021/06/09 09:20:24;;;;;;;2.33;2.22;;;;;;;18.49;56.78;101069.28;6312994;22;20003;-73
2021/06/09 09:22:52;;;;;;;3.72;3.42;;;;;;;18.48;56.90;101064.88;6312105;22;20029;-73
2021/06/09 09:25:19;;;;;;;5.93;3.72;;;;;;;18.56;56.95;101069.72;6312845;22;19999;-74
2021/06/09 09:27:55;;;;;;;4.60;4.30;;;;;;;18.59;57.55;101069.09;6285672;22;20011;-73
2021/06/09 09:30:24;;;;;;;4.10;3.78;;;;;;;18.55;57.61;101067.25;6311859;22;20078;-73
2021/06/09 09:33:02;;;;;;;4.38;4.07;;;;;;;18.53;57.42;101064.78;6287378;22;20004;-72
2021/06/09 09:35:40;;;;;;;3.65;3.45;;;;;;;18.60;57.84;101070.75;6308112;22;20025;-73
2021/06/09 09:38:12;;;;;;;3.55;3.25;;;;;;;18.72;57.58;101061.09;6313994;22;20015;-72
2021/06/09 09:40:38;;;;;;;3.08;2.88;;;;;;;18.83;57.53;101059.78;6284607;22;20011;-73
2021/06/09 09:43:03;;;;;;;3.35;3.25;;;;;;;18.94;57.11;101052.13;6313895;22;20475;-72
2021/06/09 09:45:35;;;;;;;2.60;2.50;;;;;;;19.13;57.69;101066.72;6312974;22;20094;-74
2021/06/09 09:48:03;;;;;;;2.90;2.60;;;;;;;19.30;57.19;101060.56;6283739;22;20003;-73
2021/06/09 09:50:34;;;;;;;2.05;1.95;;;;;;;19.50;56.58;101055.69;6312510;22;19999;-74
2021/06/09 09:53:17;;;;;;;2.13;2.03;;;;;;;19.83;56.13;101055.50;6283378;22;19996;-73
2021/06/09 09:56:04;;;;;;;2.25;2.15;;;;;;;20.22;55.72;101062.34;6313013;22;20011;-73
2021/06/09 09:58:30;;;;;;;1.45;1.45;;;;;;;20.39;55.10;101061.66;6278719;22;20003;-73
2021/06/09 10:01:17;;;;;;;1.35;1.25;;;;;;;20.85;55.02;101054.91;6311922;22;20076;-73
2021/06/09 10:03:46;;;;;;;4.55;1.67;;;;;;;21.15;53.15;101062.69;6286520;22;20372;-73
2021/06/09 10:06:19;;;;;;;1.60;0.80;;;;;;;21.47;51.02;101055.09;6285567;22;20026;-74
2021/06/09 10:08:45;;;;;;;0.70;0.70;;;;;;;21.73;49.62;101055.97;6312566;22;20007;-72
2021/06/09 10:11:18;;;;;;;0.90;0.90;;;;;;;21.98;48.39;101050.72;6309683;22;20014;-73
2021/06/09 10:13:44;;;;;;;0.30;0.30;;;;;;;22.37;49.59;101059.22;6285478;22;20067;-74
2021/06/09 10:16:24;;;;;;;0.52;0.50;;;;;;;23.32;48.45;101054.47;6306787;22;20007;-75
2021/06/09 10:19:02;;;;;;;0.55;0.43;;;;;;;24.20;45.72;101054.59;6309377;22;20329;-73
2021/06/09 10:21:29;;;;;;;0.38;0.30;;;;;;;25.16;44.21;101047.06;6313264;22;20003;-72
2021/06/09 10:24:07;;;;;;;0.30;0.30;;;;;;;26.18;44.15;101047.00;6284959;22;20007;-74
2021/06/09 10:26:33;;;;;;;0.73;0.20;;;;;;;27.32;43.46;101051.13;6287184;22;20418;-73
2021/06/09 10:29:08;;;;;;;1.17;0.30;;;;;;;28.57;38.43;101051.28;6283266;22;20425;-73
2021/06/09 10:31:38;;;;;;;1.27;0.10;;;;;;;29.23;34.13;101051.22;6306960;22;20050;-74
2021/06/09 10:34:04;;;;;;;0.40;0.30;;;;;;;30.02;34.23;101054.31;6286531;22;20019;-73
2021/06/09 10:36:38;;;;;;;0.20;0.20;;;;;;;30.67;30.90;101050.19;6309651;22;20007;-72
2021/06/09 10:39:04;;;;;;;0.20;0.20;;;;;;;31.42;31.15;101049.94;6282340;22;20042;-73
2021/06/09 10:41:31;;;;;;;0.25;0.20;;;;;;;32.41;30.04;101052.00;6284558;22;20010;-73
2021/06/09 10:43:59;;;;;;;0.30;0.25;;;;;;;32.98;26.62;101051.25;6311338;22;20414;-73
2021/06/09 10:46:26;;;;;;;0.93;0.25;;;;;;;33.13;26.16;101055.66;6307131;22;20013;-74
2021/06/09 10:49:01;;;;;;;0.20;0.20;;;;;;;33.56;25.62;101064.13;6285718;22;20007;-73
2021/06/09 10:51:27;;;;;;;0.10;0.10;;;;;;;34.30;26.42;101071.13;6313245;22;19995;-73
2021/06/09 10:53:53;;;;;;;0.25;0.20;;;;;;;35.09;25.42;101064.84;6307994;22;20002;-73
2021/06/09 10:56:22;;;;;;;0.52;0.45;;;;;;;35.43;22.66;101062.09;6312378;22;20007;-73
2021/06/09 10:58:48;;;;;;;0.10;0.10;;;;;;;35.93;23.69;101059.91;6312818;22;20008;-73
2021/06/09 11:01:26;;;;;;;0.17;0.17;;;;;;;36.82;23.33;101057.00;6307786;22;20011;-75
2021/06/09 11:03:57;;;;;;;0.10;0.10;;;;;;;37.35;22.09;101048.72;6281865;22;20410;-75
2021/06/09 11:06:38;;;;;;;0.17;0.10;;;;;;;37.55;18.96;101051.59;6309557;22;20006;-75
2021/06/09 11:09:14;;;;;;;0.20;0.17;;;;;;;37.43;19.26;101043.69;6309317;22;20519;-75
2021/06/09 11:11:40;;;;;;;0.20;0.20;;;;;;;37.26;17.04;101063.56;6281241;22;20014;-74
2021/06/09 11:14:19;;;;;;;0.40;0.20;;;;;;;37.10;18.24;101054.88;6306553;22;20382;-74
2021/06/09 11:16:53;;;;;;;0.10;0.10;;;;;;;37.35;17.56;101048.72;6272448;22;20452;-75
2021/06/09 11:19:40;;;;;;;0.20;0.10;;;;;;;37.68;17.36;101052.53;6312040;22;20045;-75
2021/06/09 11:22:17;;;;;;;0.90;0.10;;;;;;;37.63;17.11;101047.34;6283984;22;20072;-75
2021/06/09 11:25:42;;;;;;;0.43;0.20;;;;;;;37.92;17.30;101046.75;6313594;22;20044;-75
2021/06/09 11:28:12;;;;;;;0.25;0.20;;;;;;;38.16;17.81;101050.31;6219859;23;20420;-74
2021/06/09 11:30:42;;;;;;;0.17;0.10;;;;;;;38.50;17.76;101039.75;6285527;22;20034;-75
2021/06/09 11:33:10;;;;;;;0.20;0.17;;;;;;;38.75;17.32;101031.38;6312863;22;20033;-73
2021/06/09 11:35:51;;;;;;;0.20;0.20;;;;;;;39.19;16.15;101038.81;6287359;22;20003;-74